createdAt,value
2019-02-20T00:01:31.511Z,7.57
2019-02-20T00:04:00.863Z,9.17
2019-02-20T00:06:30.166Z,8.10
2019-02-20T00:08:59.462Z,8.60
2019-02-20T00:11:28.760Z,7.87
2019-02-20T00:13:58.050Z,8.43
2019-02-20T00:16:27.352Z,8.20
2019-02-20T00:18:57.203Z,8.57
2019-02-20T00:21:26.504Z,8.47
2019-02-20T00:23:55.791Z,7.87
2019-02-20T00:26:25.099Z,8.63
2019-02-20T00:28:54.409Z,7.77
2019-02-20T00:31:23.687Z,7.87
2019-02-20T00:33:53.000Z,14.20
2019-02-20T00:36:22.282Z,10.77
2019-02-20T00:38:51.607Z,9.60
2019-02-20T00:41:20.920Z,11.43
2019-02-20T00:43:51.839Z,10.40
2019-02-20T00:46:22.774Z,8.37
2019-02-20T00:48:53.768Z,10.23
2019-02-20T00:51:30.412Z,9.27
2019-02-20T00:54:01.902Z,9.47
2019-02-20T00:56:31.184Z,9.10
2019-02-20T00:59:00.503Z,9.70
2019-02-20T01:01:29.815Z,8.70
2019-02-20T01:03:59.468Z,9.33
2019-02-20T01:06:28.939Z,8.77
2019-02-20T01:08:58.935Z,8.77
2019-02-20T01:11:28.240Z,8.93
2019-02-20T01:13:57.519Z,8.77
2019-02-20T01:16:26.899Z,10.40
2019-02-20T01:18:56.175Z,9.30
2019-02-20T01:21:25.486Z,10.37
2019-02-20T01:23:54.787Z,9.67
2019-02-20T01:26:24.142Z,9.07
2019-02-20T01:28:53.448Z,9.27
2019-02-20T01:31:22.725Z,9.80
2019-02-20T01:33:52.998Z,9.07
2019-02-20T01:36:22.266Z,9.33
2019-02-20T01:38:51.576Z,9.00
2019-02-20T01:41:21.532Z,9.33
2019-02-20T01:43:50.836Z,9.17
2019-02-20T01:46:21.083Z,8.60
2019-02-20T01:48:50.386Z,9.10
2019-02-20T01:51:19.689Z,9.50
2019-02-20T01:53:48.975Z,9.57
2019-02-20T01:56:19.246Z,9.37
2019-02-20T01:58:48.963Z,10.20
2019-02-20T02:01:18.243Z,9.70
2019-02-20T02:03:48.812Z,9.43
2019-02-20T02:06:18.095Z,9.10
2019-02-20T02:08:47.397Z,9.40
2019-02-20T02:11:16.743Z,9.40
2019-02-20T02:13:46.065Z,9.33
2019-02-20T02:16:15.356Z,9.63
2019-02-20T02:18:49.395Z,9.17
2019-02-20T02:21:23.623Z,9.50
2019-02-20T02:23:52.923Z,9.47
2019-02-20T02:26:22.206Z,9.43
2019-02-20T02:28:51.512Z,10.00
2019-02-20T02:31:20.806Z,9.93
2019-02-20T02:33:50.102Z,9.87
2019-02-20T02:36:20.955Z,10.63
2019-02-20T02:38:50.242Z,10.40
2019-02-20T02:41:19.538Z,9.13
2019-02-20T02:43:48.831Z,9.77
2019-02-20T02:46:18.137Z,10.90
2019-02-20T02:48:47.459Z,10.57
2019-02-20T02:51:16.770Z,10.50
2019-02-20T02:53:46.054Z,10.13
2019-02-20T02:56:15.354Z,9.57
2019-02-20T02:58:44.639Z,9.13
2019-02-20T03:01:13.943Z,9.87
2019-02-20T03:03:43.247Z,10.57
2019-02-20T03:06:12.530Z,10.77
2019-02-20T03:08:41.843Z,10.40
2019-02-20T03:11:11.135Z,11.10
2019-02-20T03:13:40.444Z,10.10
2019-02-20T03:16:09.739Z,10.40
2019-02-20T03:18:39.061Z,11.07
2019-02-20T03:21:08.346Z,10.57
2019-02-20T03:23:40.219Z,10.30
2019-02-20T03:26:08.642Z,10.00
2019-02-20T03:28:40.160Z,10.87
2019-02-20T03:31:08.952Z,10.90
2019-02-20T03:33:38.319Z,12.00
2019-02-20T03:36:08.573Z,10.33
2019-02-20T03:38:37.875Z,11.47
2019-02-20T03:41:07.154Z,10.83
2019-02-20T03:43:36.495Z,11.47
2019-02-20T03:46:05.782Z,11.20
2019-02-20T03:48:35.348Z,10.47
2019-02-20T03:51:04.630Z,11.17
2019-02-20T03:53:33.982Z,10.53
2019-02-20T03:56:03.344Z,11.07
2019-02-20T03:58:33.330Z,11.03
2019-02-20T04:01:02.710Z,12.00
2019-02-20T04:03:32.015Z,10.70
2019-02-20T04:06:01.312Z,11.37
2019-02-20T04:08:30.615Z,10.60
2019-02-20T04:10:59.906Z,10.90
2019-02-20T04:13:30.503Z,10.93
2019-02-20T04:15:59.791Z,11.00
2019-02-20T04:18:29.108Z,11.23
2019-02-20T04:20:58.424Z,10.47
2019-02-20T04:23:27.703Z,12.23
2019-02-20T04:25:57.011Z,11.33
2019-02-20T04:28:26.311Z,10.70
2019-02-20T04:30:55.614Z,12.03
2019-02-20T04:33:24.928Z,10.87
2019-02-20T04:35:54.216Z,11.60
2019-02-20T04:38:23.518Z,10.93
2019-02-20T04:40:52.804Z,12.10
2019-02-20T04:43:22.106Z,11.87
2019-02-20T04:45:51.393Z,11.20
2019-02-20T04:48:20.706Z,11.77
2019-02-20T04:50:50.004Z,12.00
2019-02-20T04:53:19.302Z,12.20
2019-02-20T04:55:48.614Z,11.57
2019-02-20T04:58:19.544Z,12.10
2019-02-20T05:00:48.871Z,11.23
2019-02-20T05:03:18.165Z,12.17
2019-02-20T05:05:47.454Z,12.33
2019-02-20T05:08:16.830Z,11.93
2019-02-20T05:10:49.735Z,11.47
2019-02-20T05:13:20.207Z,12.37
2019-02-20T05:15:50.176Z,12.33
2019-02-20T05:18:19.480Z,13.10
2019-02-20T05:20:48.764Z,12.70
2019-02-20T05:23:18.167Z,11.73
2019-02-20T05:25:47.447Z,12.00
2019-02-20T05:28:16.780Z,12.40
2019-02-20T05:30:46.140Z,12.50
2019-02-20T05:33:16.978Z,12.00
2019-02-20T05:35:46.267Z,12.90
2019-02-20T05:38:15.569Z,12.13
2019-02-20T05:40:44.916Z,12.63
2019-02-20T05:43:14.698Z,12.77
2019-02-20T05:45:43.975Z,12.43
2019-02-20T05:48:13.274Z,11.53
2019-02-20T05:50:42.581Z,13.43
2019-02-20T05:53:11.870Z,12.13
2019-02-20T05:55:41.175Z,12.10
2019-02-20T05:58:10.462Z,11.17
2019-02-20T06:00:39.778Z,12.70
2019-02-20T06:03:10.197Z,12.20
2019-02-20T06:05:40.772Z,11.43
2019-02-20T06:08:10.105Z,11.60
2019-02-20T06:10:41.539Z,11.80
2019-02-20T06:13:12.559Z,12.70
2019-02-20T06:15:43.109Z,12.23
2019-02-20T06:18:12.560Z,12.40
2019-02-20T06:20:42.170Z,13.33
2019-02-20T06:23:11.759Z,14.23
2019-02-20T06:25:41.076Z,13.73
2019-02-20T06:28:10.963Z,13.60
2019-02-20T06:33:36.635Z,13.43
2019-02-20T06:36:06.263Z,12.50
2019-02-20T06:38:35.593Z,13.83
2019-02-20T06:41:06.651Z,13.57
2019-02-20T06:43:35.957Z,13.20
2019-02-20T06:46:06.516Z,14.50
2019-02-20T06:48:35.862Z,13.33
2019-02-20T06:51:05.219Z,13.60
2019-02-20T06:53:35.356Z,12.33
2019-02-20T06:56:04.631Z,13.97
2019-02-20T06:58:33.944Z,12.87
2019-02-20T07:01:03.244Z,14.47
2019-02-20T07:03:33.437Z,14.43
2019-02-20T07:06:16.759Z,13.23
2019-02-20T07:09:15.317Z,13.80
2019-02-20T07:12:11.434Z,13.77
2019-02-20T07:14:51.846Z,13.93
2019-02-20T07:17:58.807Z,12.43
2019-02-20T07:20:50.547Z,13.03
2019-02-20T07:23:47.206Z,13.17
2019-02-20T07:26:35.279Z,13.37
2019-02-20T07:29:26.701Z,13.03
2019-02-20T07:31:55.991Z,13.33
2019-02-20T07:34:27.890Z,12.43
2019-02-20T07:37:00.271Z,12.73
2019-02-20T07:39:31.164Z,13.60
2019-02-20T07:42:03.305Z,13.40
2019-02-20T07:44:35.731Z,14.43
2019-02-20T07:47:05.029Z,14.43
2019-02-20T07:49:34.338Z,13.20
2019-02-20T07:52:03.618Z,13.13
2019-02-20T07:54:34.943Z,14.03
2019-02-20T07:57:06.383Z,14.13
2019-02-20T07:59:35.959Z,13.57
2019-02-20T08:02:05.413Z,13.87
2019-02-20T08:04:36.131Z,14.63
2019-02-20T08:07:06.611Z,13.77
2019-02-20T08:09:36.967Z,14.50
2019-02-20T08:12:07.526Z,14.70
2019-02-20T08:14:37.671Z,13.83
2019-02-20T08:17:06.965Z,13.90
2019-02-20T08:19:38.004Z,14.13
2019-02-20T08:22:08.523Z,13.60
2019-02-20T08:24:37.924Z,14.03
2019-02-20T08:27:07.285Z,13.67
2019-02-20T08:29:36.640Z,13.07
2019-02-20T08:32:07.213Z,13.80
2019-02-20T08:34:39.716Z,12.53
2019-02-20T08:37:09.090Z,13.40
2019-02-20T08:39:40.616Z,13.53
2019-02-20T08:42:09.915Z,14.10
2019-02-20T08:44:41.467Z,14.63
2019-02-20T08:47:10.793Z,14.70
2019-02-20T08:49:40.338Z,14.73
2019-02-20T08:52:09.896Z,14.23
2019-02-20T08:54:40.255Z,15.43
2019-02-20T08:57:10.520Z,14.57
2019-02-20T08:59:40.399Z,14.60
2019-02-20T09:02:09.960Z,15.63
2019-02-20T09:04:39.263Z,14.20
2019-02-20T09:07:08.574Z,15.20
2019-02-20T09:09:40.412Z,15.33
2019-02-20T09:12:10.932Z,14.50
2019-02-20T09:14:43.991Z,14.77
2019-02-20T09:17:16.944Z,15.50
2019-02-20T09:19:49.276Z,15.53
2019-02-20T09:22:20.154Z,15.63
2019-02-20T09:24:51.249Z,16.20
2019-02-20T09:27:22.667Z,15.80
2019-02-20T09:29:53.116Z,16.07
2019-02-20T09:32:23.539Z,15.83
2019-02-20T09:34:54.518Z,16.00
2019-02-20T09:37:25.340Z,15.20
2019-02-20T09:39:56.368Z,16.80
2019-02-20T09:42:27.214Z,16.80
2019-02-20T09:44:56.539Z,15.53
2019-02-20T09:47:27.470Z,15.77
2019-02-20T09:49:57.335Z,17.00
2019-02-20T09:52:27.766Z,15.23
2019-02-20T09:54:57.050Z,16.43
2019-02-20T09:57:27.646Z,16.23
2019-02-20T09:59:58.086Z,14.87
2019-02-20T10:02:29.731Z,16.13
2019-02-20T10:04:59.048Z,16.17
2019-02-20T10:07:31.738Z,15.50
2019-02-20T10:10:03.151Z,16.03
2019-02-20T10:12:33.116Z,15.77
2019-02-20T10:15:03.660Z,15.00
2019-02-20T10:17:34.600Z,15.07
2019-02-20T10:20:05.498Z,16.20
2019-02-20T10:22:35.043Z,16.37
2019-02-20T10:25:06.195Z,15.87
2019-02-20T10:27:37.165Z,15.00
2019-02-20T10:30:18.570Z,16.23
2019-02-20T10:32:48.570Z,15.77
2019-02-20T10:35:20.763Z,15.53
2019-02-20T10:37:52.897Z,16.70
2019-02-20T10:40:24.032Z,18.30
2019-02-20T10:42:55.326Z,18.93
2019-02-20T10:45:25.861Z,16.67
2019-02-20T10:47:55.411Z,17.97
2019-02-20T10:50:24.948Z,16.97
2019-02-20T10:52:55.567Z,16.00
2019-02-20T10:55:26.661Z,17.77
2019-02-20T10:57:56.083Z,17.13
2019-02-20T11:00:29.414Z,16.53
2019-02-20T11:02:58.836Z,16.47
2019-02-20T11:05:28.130Z,16.27
2019-02-20T11:07:58.664Z,16.93
2019-02-20T11:10:27.960Z,18.63
2019-02-20T11:13:00.785Z,16.50
2019-02-20T11:15:31.251Z,14.80
2019-02-20T11:18:01.535Z,14.77
2019-02-20T11:20:33.209Z,16.23
2019-02-20T11:23:04.044Z,15.30
2019-02-20T11:25:33.887Z,15.60
2019-02-20T11:28:03.567Z,15.97
2019-02-20T11:30:32.871Z,12.43
2019-02-20T11:33:06.597Z,12.20
2019-02-20T11:35:36.691Z,14.30
2019-02-20T11:38:06.391Z,15.07
2019-02-20T11:40:38.146Z,14.27
2019-02-20T11:43:07.691Z,14.10
2019-02-20T11:45:37.244Z,14.17
2019-02-20T11:48:07.382Z,15.57
2019-02-20T11:50:36.668Z,14.50
2019-02-20T11:53:07.692Z,14.40
2019-02-20T11:55:36.979Z,10.93
2019-02-20T11:58:06.300Z,12.37
2019-02-20T12:00:35.593Z,13.23
2019-02-20T12:03:05.752Z,13.80
2019-02-20T12:05:38.354Z,11.77
2019-02-20T12:08:09.743Z,10.83
2019-02-20T12:10:39.142Z,10.00
2019-02-20T12:13:08.462Z,11.90
2019-02-20T12:15:38.083Z,10.47
2019-02-20T12:18:07.407Z,9.33
2019-02-20T12:20:38.139Z,9.87
2019-02-20T12:23:07.550Z,10.40
2019-02-20T12:25:37.235Z,9.33
2019-02-20T12:28:06.556Z,9.20
2019-02-20T12:30:35.839Z,9.90
2019-02-20T12:33:05.499Z,10.43
2019-02-20T12:35:35.961Z,10.80
2019-02-20T12:38:06.395Z,11.70
2019-02-20T12:40:37.520Z,10.80
2019-02-20T12:43:08.252Z,10.60
2019-02-20T12:45:37.538Z,9.53
2019-02-20T12:48:06.911Z,10.23
2019-02-20T12:50:37.869Z,10.63
2019-02-20T12:53:08.299Z,11.00
2019-02-20T12:55:40.991Z,10.10
2019-02-20T12:58:20.659Z,10.33
2019-02-20T13:00:52.262Z,9.67
2019-02-20T13:03:21.589Z,7.97
2019-02-20T13:05:50.889Z,8.03
2019-02-20T13:08:21.834Z,8.80
2019-02-20T13:10:52.476Z,9.10
2019-02-20T13:13:24.191Z,8.97
2019-02-20T13:15:55.622Z,7.60
2019-02-20T13:18:29.175Z,7.27
2019-02-20T13:20:59.291Z,8.13
2019-02-20T13:23:28.661Z,8.50
2019-02-20T13:25:59.454Z,8.27
2019-02-20T13:28:29.484Z,6.37
2019-02-20T13:31:01.948Z,7.07
2019-02-20T13:33:32.848Z,7.87
2019-02-20T13:36:04.260Z,9.00
2019-02-20T13:38:36.054Z,7.80
2019-02-20T13:41:34.070Z,8.37
2019-02-20T13:44:09.858Z,7.53
2019-02-20T13:46:40.875Z,9.30
2019-02-20T13:49:10.187Z,8.87
2019-02-20T13:51:39.563Z,8.03
2019-02-20T13:54:10.985Z,8.73
2019-02-20T13:56:40.512Z,8.47
2019-02-20T13:59:09.851Z,9.20
2019-02-20T14:01:39.207Z,8.80
2019-02-20T14:04:10.466Z,8.40
2019-02-20T14:06:40.031Z,9.00
2019-02-20T14:09:10.818Z,10.70
2019-02-20T14:11:43.786Z,9.00
2019-02-20T14:14:16.617Z,9.53
2019-02-20T14:17:01.311Z,8.87
2019-02-20T14:19:33.951Z,9.43
2019-02-20T14:22:04.347Z,9.47
2019-02-20T14:24:33.655Z,9.23
2019-02-20T14:27:10.511Z,9.30
2019-02-20T14:29:35.791Z,9.87
2019-02-20T14:32:05.074Z,9.73
2019-02-20T14:34:34.650Z,12.00
2019-02-20T14:37:05.173Z,9.00
2019-02-20T14:39:35.291Z,10.20
2019-02-20T14:42:04.631Z,9.23
2019-02-20T14:44:35.226Z,8.67
2019-02-20T14:47:04.519Z,8.50
2019-02-20T14:49:34.788Z,8.63
2019-02-20T14:52:08.092Z,8.57
2019-02-20T14:54:42.263Z,8.07
2019-02-20T14:57:19.341Z,8.50
2019-02-20T14:59:42.655Z,8.23
2019-02-20T15:02:16.546Z,7.80
2019-02-20T15:04:45.946Z,8.10
2019-02-20T15:07:15.251Z,9.40
2019-02-20T15:09:45.547Z,8.63
2019-02-20T15:12:17.465Z,8.27
2019-02-20T15:14:47.756Z,7.53
2019-02-20T15:17:18.584Z,7.93
2019-02-20T15:19:47.891Z,8.60
2019-02-20T15:22:17.188Z,10.00
2019-02-20T15:24:49.334Z,7.50
2019-02-20T15:27:28.452Z,7.70
2019-02-20T15:29:54.980Z,7.07
2019-02-20T15:32:24.274Z,8.27
2019-02-20T15:34:54.849Z,7.47
2019-02-20T15:37:25.499Z,6.90
2019-02-20T15:39:56.199Z,6.43
2019-02-20T15:42:27.398Z,8.13
2019-02-20T15:44:56.972Z,7.70
2019-02-20T15:47:26.978Z,7.40
2019-02-20T15:49:57.819Z,7.47
2019-02-20T15:52:27.839Z,7.07
2019-02-20T15:54:57.155Z,7.43
2019-02-20T15:57:27.479Z,6.83
2019-02-20T15:59:58.160Z,7.27
2019-02-20T16:02:29.823Z,7.23
2019-02-20T16:05:02.000Z,6.67
2019-02-20T16:07:31.976Z,6.67
2019-02-20T16:10:01.770Z,7.10
2019-02-20T16:12:32.696Z,7.20
2019-02-20T16:15:05.962Z,7.20
2019-02-20T16:17:35.822Z,7.37
2019-02-20T16:20:33.570Z,7.20
2019-02-20T16:23:03.487Z,6.60
2019-02-20T16:25:35.355Z,6.57
2019-02-20T16:28:08.948Z,7.03
2019-02-20T16:30:40.072Z,7.10
2019-02-20T16:33:10.079Z,7.03
2019-02-20T16:35:39.831Z,6.80
2019-02-20T16:38:10.512Z,6.90
2019-02-20T16:40:40.095Z,7.43
2019-02-20T16:43:09.424Z,7.13
2019-02-20T16:45:40.166Z,7.13
2019-02-20T16:48:09.491Z,8.00
2019-02-20T16:50:42.577Z,7.60
2019-02-20T16:53:12.107Z,7.80
2019-02-20T16:55:42.423Z,7.37
2019-02-20T16:58:11.773Z,8.00
2019-02-20T17:00:41.303Z,7.30
2019-02-20T17:03:11.401Z,7.30
2019-02-20T17:05:40.955Z,7.27
2019-02-20T17:08:13.162Z,7.07
2019-02-20T17:10:42.454Z,7.37
2019-02-20T17:13:12.110Z,7.80
2019-02-20T17:15:42.059Z,6.90
2019-02-20T17:18:15.303Z,11.43
2019-02-20T17:20:44.639Z,9.10
2019-02-20T17:23:16.880Z,7.43
2019-02-20T17:25:46.410Z,8.00
2019-02-20T17:28:16.266Z,7.60
2019-02-20T17:30:45.551Z,8.00
2019-02-20T17:33:14.870Z,7.47
2019-02-20T17:35:44.149Z,7.13
2019-02-20T17:38:13.656Z,8.17
2019-02-20T17:40:43.023Z,8.07
2019-02-20T17:43:12.502Z,7.50
2019-02-20T17:45:41.776Z,7.10
2019-02-20T17:48:12.119Z,7.47
2019-02-20T17:50:41.407Z,8.60
2019-02-20T17:53:11.980Z,7.13
2019-02-20T17:55:44.083Z,7.67
2019-02-20T17:58:15.456Z,8.63
2019-02-20T18:00:44.884Z,8.63
2019-02-20T18:03:16.616Z,8.07
2019-02-20T18:05:53.240Z,8.77
2019-02-20T18:08:22.529Z,8.20
2019-02-20T18:10:52.639Z,8.20
2019-02-20T18:13:21.960Z,8.03
2019-02-20T18:15:53.182Z,8.40
2019-02-20T18:18:23.097Z,7.57
2019-02-20T18:20:52.399Z,8.30
2019-02-20T18:23:24.858Z,8.03
2019-02-20T18:25:55.806Z,8.43
2019-02-20T18:28:25.134Z,8.07
2019-02-20T18:30:55.388Z,8.33
2019-02-20T18:33:24.703Z,7.67
2019-02-20T18:35:54.956Z,8.33
2019-02-20T18:38:25.779Z,8.93
2019-02-20T18:40:56.747Z,8.63
2019-02-20T18:43:26.095Z,9.67
2019-02-20T18:45:55.446Z,9.10
2019-02-20T18:48:24.730Z,9.17
2019-02-20T18:50:54.011Z,8.27
2019-02-20T18:53:23.332Z,9.00
2019-02-20T18:55:52.630Z,8.97
2019-02-20T18:58:21.920Z,10.07
2019-02-20T19:03:41.253Z,8.60
2019-02-20T19:06:12.278Z,9.17
2019-02-20T19:08:46.925Z,9.70
2019-02-20T19:11:19.428Z,10.37
2019-02-20T19:13:59.369Z,9.33
2019-02-20T19:16:45.007Z,9.50
2019-02-20T19:19:39.755Z,8.13
2019-02-20T19:22:36.350Z,8.80
2019-02-20T19:25:36.505Z,9.73
2019-02-20T19:28:20.831Z,13.80
2019-02-20T19:31:24.755Z,9.40
2019-02-20T19:34:05.824Z,10.57
2019-02-20T19:37:00.614Z,9.93
2019-02-20T19:39:43.800Z,10.23
2019-02-20T19:42:33.879Z,13.17
2019-02-20T19:45:27.131Z,11.87
2019-02-20T19:48:14.773Z,10.97
2019-02-20T19:50:50.336Z,9.80
2019-02-20T19:53:31.704Z,10.03
2019-02-20T19:56:37.162Z,10.47
2019-02-20T19:59:34.760Z,10.63
2019-02-20T20:02:15.695Z,11.27
2019-02-20T20:05:07.125Z,10.57
2019-02-20T20:07:48.851Z,10.67
2019-02-20T20:10:29.554Z,11.70
2019-02-20T20:13:04.877Z,12.03
2019-02-20T20:15:49.577Z,11.57
2019-02-20T20:18:57.815Z,11.60
2019-02-20T20:22:03.486Z,10.90
2019-02-20T20:24:49.460Z,12.00
2019-02-20T20:27:51.098Z,11.60
2019-02-20T20:30:41.763Z,13.00
2019-02-20T20:33:40.502Z,11.13
2019-02-20T20:36:36.868Z,11.27
2019-02-20T20:39:33.007Z,11.67
2019-02-20T20:42:27.101Z,10.77
2019-02-20T20:45:19.305Z,11.97
2019-02-20T20:48:11.217Z,11.27
2019-02-20T20:50:50.942Z,10.67
2019-02-20T20:53:26.217Z,10.87
2019-02-20T20:56:04.327Z,10.83
2019-02-20T20:58:48.700Z,10.90
2019-02-20T21:01:33.039Z,10.07
2019-02-20T21:04:31.696Z,11.43
2019-02-20T21:07:26.539Z,14.07
2019-02-20T21:10:13.571Z,11.87
2019-02-20T21:13:08.617Z,11.73
2019-02-20T21:15:55.867Z,11.73
2019-02-20T21:18:50.735Z,10.60
2019-02-20T21:21:25.744Z,11.53
2019-02-20T21:27:27.893Z,12.60
2019-02-20T21:30:00.339Z,11.67
2019-02-20T21:33:00.851Z,11.90
2019-02-20T21:35:40.403Z,11.47
2019-02-20T21:38:18.331Z,11.90
2019-02-20T21:40:53.929Z,12.40
2019-02-20T21:43:45.734Z,11.40
2019-02-20T21:46:32.868Z,11.60
2019-02-20T21:49:27.587Z,12.30
2019-02-20T21:51:59.966Z,11.50
2019-02-20T21:54:50.344Z,12.63
2019-02-20T21:57:39.305Z,12.63
2019-02-20T22:00:27.954Z,13.30
2019-02-20T22:03:20.143Z,12.67
2019-02-20T22:05:58.535Z,13.83
2019-02-20T22:08:53.588Z,12.57
2019-02-20T22:11:35.038Z,13.43
2019-02-20T22:14:13.194Z,12.93
2019-02-20T22:16:54.427Z,15.80
2019-02-20T22:19:41.631Z,13.53
2019-02-20T22:22:37.930Z,14.17
2019-02-20T22:25:28.220Z,13.37
2019-02-20T22:28:20.028Z,15.13
2019-02-20T22:31:26.855Z,15.10
2019-02-20T22:34:18.566Z,15.40
2019-02-20T22:37:02.377Z,13.47
2019-02-20T22:39:49.478Z,14.07
2019-02-20T22:42:49.999Z,13.90
2019-02-20T22:45:30.651Z,14.17
2019-02-20T22:48:05.422Z,15.00
2019-02-20T22:50:55.605Z,13.30
2019-02-20T22:53:54.447Z,14.20
2019-02-20T22:56:45.963Z,14.37
2019-02-20T22:59:22.628Z,15.27
2019-02-20T23:02:03.762Z,19.87
2019-02-20T23:04:41.635Z,21.00
2019-02-20T23:07:22.801Z,17.20
2019-02-20T23:09:58.666Z,15.53
2019-02-20T23:13:03.815Z,14.43
2019-02-20T23:15:34.795Z,14.37
2019-02-20T23:18:04.079Z,15.13
2019-02-20T23:20:33.382Z,14.50
2019-02-20T23:23:03.028Z,15.97
2019-02-20T23:25:32.360Z,16.83
2019-02-20T23:28:01.729Z,15.03
2019-02-20T23:30:31.027Z,14.20
2019-02-20T23:33:00.780Z,13.57
2019-02-20T23:35:30.858Z,14.53
2019-02-20T23:38:00.146Z,14.43
2019-02-20T23:40:30.423Z,14.03
2019-02-20T23:43:00.270Z,14.30
2019-02-20T23:45:29.640Z,13.87
2019-02-20T23:47:58.915Z,14.23
2019-02-20T23:50:28.230Z,13.43
2019-02-20T23:52:58.099Z,14.07
2019-02-20T23:55:27.652Z,13.93
2019-02-20T23:57:57.775Z,13.83
